createdAt,value
2023-02-27T00:01:31.559Z,100
2023-02-27T00:03:37.205Z,100
2023-02-27T00:05:42.429Z,100
2023-02-27T00:07:48.266Z,100
2023-02-27T00:09:53.636Z,100
2023-02-27T00:11:59.133Z,100
2023-02-27T00:14:04.903Z,100
2023-02-27T00:16:13.195Z,100
2023-02-27T00:18:18.730Z,100
2023-02-27T00:20:24.094Z,100
2023-02-27T00:22:29.456Z,100
2023-02-27T00:24:34.589Z,100
2023-02-27T00:26:40.215Z,100
2023-02-27T00:28:45.794Z,100
2023-02-27T00:30:51.201Z,100
2023-02-27T00:32:56.455Z,100
2023-02-27T00:35:02.076Z,100
2023-02-27T00:37:07.482Z,100
2023-02-27T00:39:12.836Z,100
2023-02-27T00:41:18.425Z,100
2023-02-27T00:43:24.362Z,100
2023-02-27T00:45:29.672Z,100
2023-02-27T00:47:35.066Z,100
2023-02-27T00:49:40.429Z,100
2023-02-27T00:51:45.864Z,100
2023-02-27T00:53:51.289Z,100
2023-02-27T00:55:56.485Z,100
2023-02-27T00:58:01.916Z,100
2023-02-27T01:00:07.329Z,100
2023-02-27T01:02:12.616Z,100
2023-02-27T01:04:18.137Z,100
2023-02-27T01:06:23.594Z,100
2023-02-27T01:08:29.037Z,100
2023-02-27T01:10:34.983Z,100
2023-02-27T01:12:40.590Z,100
2023-02-27T01:14:46.072Z,100
2023-02-27T01:16:51.151Z,100
2023-02-27T01:18:56.884Z,100
2023-02-27T01:21:02.473Z,100
2023-02-27T01:23:07.762Z,100
2023-02-27T01:25:13.185Z,100
2023-02-27T01:27:18.843Z,100
2023-02-27T01:29:24.407Z,100
2023-02-27T01:31:31.301Z,100
2023-02-27T01:33:36.695Z,100
2023-02-27T01:35:42.080Z,100
2023-02-27T01:37:47.691Z,100
2023-02-27T01:39:53.153Z,100
2023-02-27T01:41:58.760Z,100
2023-02-27T01:44:04.158Z,100
2023-02-27T01:46:09.654Z,100
2023-02-27T01:48:14.964Z,100
2023-02-27T01:50:20.452Z,100
2023-02-27T01:52:25.827Z,100
2023-02-27T01:54:31.449Z,100
2023-02-27T01:56:36.797Z,100
2023-02-27T01:58:42.140Z,100
2023-02-27T02:00:47.593Z,100
2023-02-27T02:02:53.206Z,100
2023-02-27T02:04:58.780Z,100
2023-02-27T02:07:04.231Z,100
2023-02-27T02:09:09.443Z,100
2023-02-27T02:11:15.084Z,100
2023-02-27T02:13:20.415Z,100
2023-02-27T02:15:25.668Z,100
2023-02-27T02:17:31.471Z,100
2023-02-27T02:19:37.026Z,100
2023-02-27T02:21:42.156Z,100
2023-02-27T02:23:47.347Z,100
2023-02-27T02:25:52.917Z,100
2023-02-27T02:27:58.211Z,100
2023-02-27T02:30:03.682Z,100
2023-02-27T02:32:09.348Z,100
2023-02-27T02:34:14.794Z,100
2023-02-27T02:36:20.003Z,100
2023-02-27T02:38:25.335Z,100
2023-02-27T02:40:30.791Z,100
2023-02-27T02:42:36.081Z,100
2023-02-27T02:44:41.508Z,100
2023-02-27T02:46:46.869Z,100
2023-02-27T02:48:52.518Z,100
2023-02-27T02:50:58.998Z,100
2023-02-27T02:53:04.108Z,100
2023-02-27T02:55:09.523Z,100
2023-02-27T02:57:16.080Z,100
2023-02-27T02:59:21.496Z,100
2023-02-27T03:01:28.081Z,100
2023-02-27T03:03:33.329Z,100
2023-02-27T03:05:38.676Z,100
2023-02-27T03:07:44.359Z,100
2023-02-27T03:09:50.089Z,100
2023-02-27T03:11:55.463Z,100
2023-02-27T03:14:00.680Z,100
2023-02-27T03:16:06.332Z,100
2023-02-27T03:18:12.081Z,100
2023-02-27T03:20:17.246Z,100
2023-02-27T03:22:22.675Z,100
2023-02-27T03:24:29.415Z,100
2023-02-27T03:26:34.769Z,100
2023-02-27T03:28:39.908Z,100
2023-02-27T03:30:45.799Z,100
2023-02-27T03:32:51.208Z,100
2023-02-27T03:34:56.530Z,100
2023-02-27T03:37:01.768Z,100
2023-02-27T03:39:06.925Z,100
2023-02-27T03:41:12.274Z,100
2023-02-27T03:43:17.521Z,100
2023-02-27T03:45:22.992Z,100
2023-02-27T03:47:29.706Z,100
2023-02-27T03:49:38.219Z,100
2023-02-27T03:51:43.647Z,100
2023-02-27T03:53:49.431Z,100
2023-02-27T03:55:54.804Z,100
2023-02-27T03:58:00.141Z,100
2023-02-27T04:00:06.968Z,100
2023-02-27T04:02:12.647Z,100
2023-02-27T04:04:18.145Z,100
2023-02-27T04:06:23.420Z,100
2023-02-27T04:08:28.729Z,100
2023-02-27T04:10:34.146Z,100
2023-02-27T04:12:39.601Z,100
2023-02-27T04:14:45.054Z,100
2023-02-27T04:16:50.554Z,100
2023-02-27T04:18:59.053Z,100
2023-02-27T04:21:04.144Z,100
2023-02-27T04:23:09.775Z,100
2023-02-27T04:25:14.948Z,100
2023-02-27T04:27:20.314Z,100
2023-02-27T04:29:25.533Z,100
2023-02-27T04:31:32.911Z,100
2023-02-27T04:33:38.079Z,100
2023-02-27T04:35:43.338Z,100
2023-02-27T04:37:48.683Z,100
2023-02-27T04:39:53.998Z,100
2023-02-27T04:41:59.212Z,100
2023-02-27T04:44:05.426Z,100
2023-02-27T04:46:11.135Z,100
2023-02-27T04:48:16.293Z,100
2023-02-27T04:50:21.673Z,100
2023-02-27T04:52:27.156Z,100
2023-02-27T04:54:32.527Z,100
2023-02-27T04:56:37.939Z,100
2023-02-27T04:58:43.230Z,100
2023-02-27T05:00:48.625Z,100
2023-02-27T05:02:54.376Z,100
2023-02-27T05:04:59.965Z,100
2023-02-27T05:07:06.546Z,100
2023-02-27T05:09:11.785Z,100
2023-02-27T05:11:16.956Z,100
2023-02-27T05:13:22.272Z,100
2023-02-27T05:15:27.782Z,100
2023-02-27T05:17:33.183Z,100
2023-02-27T05:19:39.792Z,100
2023-02-27T05:21:45.298Z,100
2023-02-27T05:23:50.760Z,100
2023-02-27T05:25:56.105Z,100
2023-02-27T05:28:01.524Z,100
2023-02-27T05:30:07.046Z,100
2023-02-27T05:32:13.088Z,100
2023-02-27T05:34:18.347Z,100
2023-02-27T05:36:23.422Z,100
2023-02-27T05:38:29.405Z,100
2023-02-27T05:40:34.746Z,100
2023-02-27T05:42:40.507Z,100
2023-02-27T05:44:47.140Z,100
2023-02-27T05:46:52.502Z,100
2023-02-27T05:48:59.373Z,100
2023-02-27T05:51:05.173Z,100
2023-02-27T05:53:10.717Z,100
2023-02-27T05:55:18.782Z,100
2023-02-27T05:57:24.788Z,100
2023-02-27T05:59:30.781Z,100
2023-02-27T06:01:36.411Z,100
2023-02-27T06:03:42.321Z,100
2023-02-27T06:05:47.782Z,100
2023-02-27T06:07:53.229Z,100
2023-02-27T06:09:59.278Z,100
2023-02-27T06:12:04.662Z,100
2023-02-27T06:14:10.269Z,100
2023-02-27T06:16:15.936Z,100
2023-02-27T06:18:21.430Z,100
2023-02-27T06:20:27.398Z,100
2023-02-27T06:22:32.847Z,100
2023-02-27T06:24:38.267Z,100
2023-02-27T06:26:43.966Z,100
2023-02-27T06:28:49.709Z,100
2023-02-27T06:30:55.468Z,100
2023-02-27T06:33:00.898Z,100
2023-02-27T06:35:06.404Z,100
2023-02-27T06:37:12.232Z,100
2023-02-27T06:39:17.874Z,100
2023-02-27T06:41:23.636Z,100
2023-02-27T06:43:29.755Z,100
2023-02-27T06:45:36.304Z,100
2023-02-27T06:47:42.606Z,100
2023-02-27T06:49:47.752Z,100
2023-02-27T06:51:53.259Z,100
2023-02-27T06:53:59.318Z,100
2023-02-27T06:56:04.955Z,100
2023-02-27T06:58:10.382Z,100
2023-02-27T07:00:16.738Z,100
2023-02-27T07:02:23.294Z,100
2023-02-27T07:04:30.232Z,100
2023-02-27T07:07:41.538Z,100
2023-02-27T07:09:47.105Z,100
2023-02-27T07:11:52.553Z,100
2023-02-27T07:13:58.033Z,100
2023-02-27T07:16:03.665Z,100
2023-02-27T07:18:09.224Z,100
2023-02-27T07:20:14.714Z,100
2023-02-27T07:22:20.120Z,100
2023-02-27T07:24:25.782Z,100
2023-02-27T07:26:32.304Z,100
2023-02-27T07:28:38.084Z,100
2023-02-27T07:30:44.513Z,100
2023-02-27T07:32:50.193Z,100
2023-02-27T07:34:55.959Z,100
2023-02-27T07:37:02.099Z,100
2023-02-27T07:39:08.079Z,100
2023-02-27T07:41:33.894Z,100
2023-02-27T07:43:39.852Z,100
2023-02-27T07:45:45.049Z,100
2023-02-27T07:47:51.572Z,100
2023-02-27T07:49:57.841Z,100
2023-02-27T07:52:03.959Z,100
2023-02-27T07:54:09.548Z,100
2023-02-27T07:56:16.110Z,100
2023-02-27T07:58:21.868Z,100
2023-02-27T08:00:28.598Z,100
2023-02-27T08:02:35.224Z,100
2023-02-27T08:04:41.788Z,100
2023-02-27T08:06:48.294Z,100
2023-02-27T08:08:54.796Z,100
2023-02-27T08:11:00.798Z,100
2023-02-27T08:13:07.202Z,100
2023-02-27T08:15:13.720Z,100
2023-02-27T08:17:20.122Z,100
2023-02-27T08:19:26.668Z,100
2023-02-27T08:21:33.557Z,100
2023-02-27T08:23:39.610Z,100
2023-02-27T08:25:46.099Z,100
2023-02-27T08:27:51.884Z,100
2023-02-27T08:29:58.271Z,100
2023-02-27T08:32:04.509Z,100
2023-02-27T08:34:14.351Z,100
2023-02-27T08:36:19.771Z,100
2023-02-27T08:38:28.795Z,100
2023-02-27T08:40:35.266Z,100
2023-02-27T08:42:41.078Z,100
2023-02-27T08:44:46.296Z,100
2023-02-27T08:46:51.995Z,100
2023-02-27T08:48:58.059Z,100
2023-02-27T08:51:04.011Z,100
2023-02-27T08:53:10.546Z,100
2023-02-27T08:55:16.719Z,100
2023-02-27T08:57:21.963Z,100
2023-02-27T08:59:27.481Z,100
2023-02-27T09:01:34.570Z,100
2023-02-27T09:03:40.742Z,100
2023-02-27T09:05:47.131Z,100
2023-02-27T09:07:53.019Z,100
2023-02-27T09:09:59.213Z,100
2023-02-27T09:12:04.886Z,100
2023-02-27T09:14:10.560Z,100
2023-02-27T09:16:19.082Z,100
2023-02-27T09:18:24.610Z,100
2023-02-27T09:20:30.672Z,100
2023-02-27T09:22:36.331Z,100
2023-02-27T09:24:42.629Z,100
2023-02-27T09:26:52.178Z,100
2023-02-27T09:28:57.808Z,97.36
2023-02-27T09:31:03.210Z,93.26
2023-02-27T09:33:10.028Z,89.88
2023-02-27T09:35:15.640Z,92.78
2023-02-27T09:37:20.833Z,84.72
2023-02-27T09:39:26.242Z,84.52
2023-02-27T09:41:32.692Z,88.28
2023-02-27T09:43:38.065Z,85.78
2023-02-27T09:45:43.512Z,89.45
2023-02-27T09:47:49.389Z,87.27
2023-02-27T09:49:54.824Z,89.73
2023-02-27T09:52:00.249Z,87.83
2023-02-27T09:54:05.618Z,85.14
2023-02-27T09:56:10.997Z,86.68
2023-02-27T09:58:16.130Z,86.03
2023-02-27T10:00:21.475Z,84.74
2023-02-27T10:02:26.976Z,87.55
2023-02-27T10:04:32.974Z,88.3
2023-02-27T10:06:38.488Z,85.93
2023-02-27T10:08:43.774Z,86.53
2023-02-27T10:10:49.468Z,83.02
2023-02-27T10:12:55.293Z,79.31
2023-02-27T10:15:01.507Z,78.82
2023-02-27T10:17:07.215Z,77
2023-02-27T10:19:13.104Z,78.14
2023-02-27T10:21:18.168Z,80.47
2023-02-27T10:23:23.837Z,79.03
2023-02-27T10:25:35.360Z,76.67
2023-02-27T10:27:40.768Z,78.39
2023-02-27T10:29:46.169Z,79.31
2023-02-27T10:31:51.700Z,80.75
2023-02-27T10:33:57.336Z,84.28
2023-02-27T10:36:06.324Z,85.06
2023-02-27T10:38:11.655Z,88.06
2023-02-27T10:40:16.874Z,86.14
2023-02-27T10:42:23.054Z,86.86
2023-02-27T10:44:28.338Z,87.59
2023-02-27T10:46:34.849Z,87.54
2023-02-27T10:48:43.432Z,86.34
2023-02-27T10:50:49.345Z,88.71
2023-02-27T10:52:54.946Z,84.06
2023-02-27T10:55:00.471Z,81.46
2023-02-27T10:57:05.959Z,84.04
2023-02-27T10:59:11.096Z,86.43
2023-02-27T11:01:16.829Z,84.17
2023-02-27T11:03:22.410Z,83.89
2023-02-27T11:05:27.493Z,81.59
2023-02-27T11:07:33.846Z,85.29
2023-02-27T11:09:39.493Z,86.62
2023-02-27T11:11:45.785Z,88.06
2023-02-27T11:13:50.930Z,84.76
2023-02-27T11:15:56.503Z,85.06
2023-02-27T11:18:02.503Z,84.68
2023-02-27T11:20:07.836Z,83.99
2023-02-27T11:22:13.543Z,81.68
2023-02-27T11:24:19.382Z,84.31
2023-02-27T11:26:24.760Z,84.81
2023-02-27T11:28:30.283Z,82.11
2023-02-27T11:30:35.868Z,82.21
2023-02-27T11:32:42.233Z,80.75
2023-02-27T11:34:47.993Z,80.49
2023-02-27T11:36:53.736Z,82.63
2023-02-27T11:39:00.752Z,80.07
2023-02-27T11:41:06.167Z,78.58
2023-02-27T11:43:12.204Z,80.37
2023-02-27T11:46:50.535Z,83.11
2023-02-27T11:48:55.892Z,85.15
2023-02-27T11:51:02.527Z,85.87
2023-02-27T11:53:07.917Z,86.77
2023-02-27T11:55:13.035Z,86.76
2023-02-27T11:57:19.547Z,85.85
2023-02-27T11:59:25.709Z,87.8
2023-02-27T12:01:31.854Z,88.47
2023-02-27T12:03:37.817Z,87.02
2023-02-27T12:05:43.064Z,87.74
2023-02-27T12:07:49.555Z,92.66
2023-02-27T12:09:54.947Z,90.37
2023-02-27T12:12:00.516Z,88.98
2023-02-27T12:14:07.719Z,90.42
2023-02-27T12:16:13.542Z,89.63
2023-02-27T12:18:19.878Z,90.62
2023-02-27T12:20:25.404Z,92.47
2023-02-27T12:22:31.519Z,92.5
2023-02-27T12:24:37.759Z,92.76
2023-02-27T12:26:43.855Z,90.9
2023-02-27T12:28:49.575Z,91.26
2023-02-27T12:30:55.032Z,92.11
2023-02-27T12:33:01.170Z,93.39
2023-02-27T12:35:06.702Z,95.66
2023-02-27T12:37:13.143Z,95.66
2023-02-27T12:39:21.808Z,94.62
2023-02-27T12:41:28.360Z,94.63
2023-02-27T12:43:35.083Z,97.93
2023-02-27T12:45:41.047Z,100
2023-02-27T12:47:46.717Z,96.7
2023-02-27T12:49:52.682Z,98.5
2023-02-27T12:51:57.811Z,99.91
2023-02-27T12:54:03.427Z,94.73
2023-02-27T12:56:09.340Z,95.46
2023-02-27T12:58:14.934Z,95.41
2023-02-27T13:00:20.592Z,92.97
2023-02-27T13:02:27.992Z,91.46
2023-02-27T13:04:33.853Z,93.51
2023-02-27T13:06:41.500Z,92.67
2023-02-27T13:08:48.003Z,92.08
2023-02-27T13:10:53.798Z,95.13
2023-02-27T13:12:59.434Z,93.71
2023-02-27T13:15:04.881Z,94.02
2023-02-27T13:17:10.927Z,93.11
2023-02-27T13:19:17.797Z,96.34
2023-02-27T13:21:23.969Z,94.42
2023-02-27T13:23:31.088Z,94.25
2023-02-27T13:25:36.631Z,95.15
2023-02-27T13:27:42.728Z,94.3
2023-02-27T13:29:48.320Z,93.01
2023-02-27T13:31:55.525Z,92.96
2023-02-27T13:34:02.282Z,92.19
2023-02-27T13:36:08.668Z,92.79
2023-02-27T13:38:15.589Z,92.96
2023-02-27T13:40:21.518Z,94.55
2023-02-27T13:42:28.116Z,95.76
2023-02-27T13:44:35.354Z,95.96
2023-02-27T13:46:41.722Z,95.57
2023-02-27T13:48:47.740Z,97.65
2023-02-27T13:50:53.842Z,97.79
2023-02-27T13:52:59.660Z,96.51
2023-02-27T13:55:15.768Z,97.68
2023-02-27T13:57:21.676Z,99.75
2023-02-27T13:59:27.851Z,100
2023-02-27T14:01:37.334Z,99.12
2023-02-27T14:03:43.401Z,99
2023-02-27T14:05:50.478Z,98.25
2023-02-27T14:07:56.558Z,98.85
2023-02-27T14:10:02.580Z,100
2023-02-27T14:12:08.859Z,100
2023-02-27T14:14:18.274Z,100
2023-02-27T14:16:24.710Z,100
2023-02-27T14:18:38.838Z,100
2023-02-27T14:20:45.263Z,100
2023-02-27T14:22:51.585Z,100
2023-02-27T14:25:07.114Z,100
2023-02-27T14:27:16.184Z,100
2023-02-27T14:29:22.925Z,100
2023-02-27T14:31:31.281Z,100
2023-02-27T14:33:44.664Z,100
2023-02-27T14:35:50.902Z,100
2023-02-27T14:37:57.414Z,100
2023-02-27T14:40:06.397Z,100
2023-02-27T14:42:12.822Z,100
2023-02-27T14:44:19.010Z,100
2023-02-27T14:46:25.326Z,100
2023-02-27T14:48:31.777Z,100
2023-02-27T14:50:38.258Z,100
2023-02-27T14:52:43.875Z,100
2023-02-27T14:54:50.149Z,100
2023-02-27T14:56:56.306Z,100
2023-02-27T14:59:08.949Z,100
2023-02-27T15:01:16.833Z,100
2023-02-27T15:03:23.430Z,100
2023-02-27T15:05:29.714Z,100
2023-02-27T15:07:36.450Z,100
2023-02-27T15:09:42.766Z,100
2023-02-27T15:12:06.928Z,100
2023-02-27T15:14:13.457Z,100
2023-02-27T15:16:21.560Z,100
2023-02-27T15:18:28.100Z,100
2023-02-27T15:20:34.422Z,100
2023-02-27T15:22:44.368Z,100
2023-02-27T15:24:56.397Z,100
2023-02-27T15:27:02.671Z,100
2023-02-27T15:29:09.376Z,100
2023-02-27T15:31:17.215Z,100
2023-02-27T15:33:23.833Z,100
2023-02-27T15:35:30.269Z,100
2023-02-27T15:37:36.770Z,100
2023-02-27T15:39:44.014Z,100
2023-02-27T15:41:52.233Z,100
2023-02-27T15:43:58.921Z,100
2023-02-27T15:46:04.610Z,100
2023-02-27T15:48:11.312Z,100
2023-02-27T15:50:17.697Z,100
2023-02-27T15:52:23.966Z,100
2023-02-27T15:54:30.507Z,100
2023-02-27T15:56:37.327Z,100
2023-02-27T15:58:43.857Z,100
2023-02-27T16:00:50.899Z,100
2023-02-27T16:02:57.757Z,100
2023-02-27T16:05:04.347Z,100
2023-02-27T16:07:11.783Z,100
2023-02-27T16:09:21.429Z,100
2023-02-27T16:11:28.749Z,100
2023-02-27T16:13:35.741Z,100
2023-02-27T16:15:42.607Z,100
2023-02-27T16:17:49.143Z,100
2023-02-27T16:19:56.894Z,100
2023-02-27T16:22:04.660Z,100
2023-02-27T16:24:11.338Z,100
2023-02-27T16:26:18.918Z,100
2023-02-27T16:28:26.200Z,100
2023-02-27T16:30:34.132Z,100
2023-02-27T16:32:41.258Z,100
2023-02-27T16:34:51.377Z,100
2023-02-27T16:36:59.081Z,100
2023-02-27T16:39:11.966Z,100
2023-02-27T16:41:20.037Z,100
2023-02-27T16:43:29.019Z,100
2023-02-27T16:45:35.566Z,100
2023-02-27T16:47:41.717Z,100
2023-02-27T16:49:48.269Z,100
2023-02-27T16:51:55.092Z,100
2023-02-27T16:54:02.252Z,100
2023-02-27T16:56:09.143Z,100
2023-02-27T16:58:15.246Z,100
2023-02-27T17:00:22.874Z,100
2023-02-27T17:02:30.170Z,100
2023-02-27T17:04:39.951Z,100
2023-02-27T17:06:46.941Z,100
2023-02-27T17:08:56.576Z,100
2023-02-27T17:11:08.888Z,100
2023-02-27T17:13:15.594Z,100
2023-02-27T17:15:22.287Z,100
2023-02-27T17:17:29.490Z,100
2023-02-27T17:19:37.633Z,100
2023-02-27T17:21:47.338Z,100
2023-02-27T17:23:57.479Z,100
2023-02-27T17:26:05.308Z,100
2023-02-27T17:28:13.606Z,100
2023-02-27T17:30:25.166Z,100
2023-02-27T17:32:40.283Z,100
2023-02-27T17:34:48.838Z,100
2023-02-27T17:36:57.430Z,100
2023-02-27T17:39:04.922Z,100
2023-02-27T17:41:13.585Z,100
2023-02-27T17:43:21.626Z,100
2023-02-27T17:45:29.688Z,100
2023-02-27T17:47:39.306Z,100
2023-02-27T17:49:48.551Z,100
2023-02-27T17:51:58.946Z,100
2023-02-27T17:54:07.383Z,100
2023-02-27T17:56:14.955Z,100
2023-02-27T17:58:27.709Z,100
2023-02-27T18:00:38.001Z,100
2023-02-27T18:02:51.322Z,100
2023-02-27T18:04:59.902Z,100
2023-02-27T18:07:08.979Z,100
2023-02-27T18:09:19.218Z,100
2023-02-27T18:11:29.383Z,100
2023-02-27T18:13:39.628Z,100
2023-02-27T18:15:49.132Z,100
2023-02-27T18:18:00.449Z,100
2023-02-27T18:20:09.150Z,100
2023-02-27T18:22:18.977Z,100
2023-02-27T18:24:30.028Z,100
2023-02-27T18:26:40.513Z,100
2023-02-27T18:28:50.101Z,100
2023-02-27T18:31:01.055Z,100
2023-02-27T18:33:09.855Z,100
2023-02-27T18:35:20.538Z,100
2023-02-27T18:37:31.267Z,100
2023-02-27T18:39:42.770Z,100
2023-02-27T18:41:51.954Z,100
2023-02-27T18:44:03.332Z,100
2023-02-27T18:46:13.660Z,100
2023-02-27T18:48:24.407Z,100
2023-02-27T18:50:34.760Z,100
2023-02-27T18:52:51.473Z,100
2023-02-27T18:55:04.385Z,100
2023-02-27T18:57:16.334Z,100
2023-02-27T18:59:37.370Z,100
2023-02-27T19:01:47.036Z,100
2023-02-27T19:03:59.831Z,100
2023-02-27T19:06:12.395Z,100
2023-02-27T19:08:25.368Z,100
2023-02-27T19:10:35.026Z,100
2023-02-27T19:12:53.154Z,100
2023-02-27T19:15:04.616Z,100
2023-02-27T19:17:13.118Z,100
2023-02-27T19:19:21.811Z,100
2023-02-27T19:21:31.371Z,100
2023-02-27T19:23:41.280Z,100
2023-02-27T19:25:51.221Z,100
2023-02-27T19:28:01.555Z,100
2023-02-27T19:30:18.757Z,100
2023-02-27T19:32:28.434Z,100
2023-02-27T19:34:37.921Z,100
2023-02-27T19:36:46.599Z,100
2023-02-27T19:39:07.346Z,100
2023-02-27T19:41:19.645Z,100
2023-02-27T19:43:28.906Z,100
2023-02-27T19:45:41.302Z,100
2023-02-27T19:47:55.639Z,100
2023-02-27T19:50:07.878Z,100
2023-02-27T19:52:18.289Z,100
2023-02-27T19:54:28.577Z,100
2023-02-27T19:56:38.634Z,100
2023-02-27T19:58:56.607Z,100
2023-02-27T20:01:06.676Z,100
2023-02-27T20:03:17.621Z,100
2023-02-27T20:05:29.243Z,100
2023-02-27T20:07:40.200Z,100
2023-02-27T20:09:49.005Z,100
2023-02-27T20:11:57.357Z,100
2023-02-27T20:14:07.456Z,100
2023-02-27T20:16:16.799Z,100
2023-02-27T20:18:27.528Z,100
2023-02-27T20:20:38.603Z,100
2023-02-27T20:22:48.511Z,100
2023-02-27T20:25:00.738Z,100
2023-02-27T20:27:10.688Z,100
2023-02-27T20:29:20.573Z,100
2023-02-27T20:31:33.141Z,100
2023-02-27T20:33:42.844Z,100
2023-02-27T20:35:51.069Z,100
2023-02-27T20:38:01.729Z,100
2023-02-27T20:40:16.089Z,100
2023-02-27T20:42:28.555Z,100
2023-02-27T20:44:36.381Z,100
2023-02-27T20:46:55.170Z,100
2023-02-27T20:49:05.658Z,100
2023-02-27T20:51:16.948Z,100
2023-02-27T20:53:27.709Z,100
2023-02-27T20:55:36.236Z,100
2023-02-27T20:57:51.802Z,100
2023-02-27T21:00:01.796Z,100
2023-02-27T21:02:10.603Z,100
2023-02-27T21:04:19.662Z,100
2023-02-27T21:06:26.764Z,100
2023-02-27T21:08:33.873Z,100
2023-02-27T21:10:40.936Z,100
2023-02-27T21:12:47.401Z,100
2023-02-27T21:15:07.706Z,100
2023-02-27T21:17:14.087Z,100
2023-02-27T21:19:23.170Z,100
2023-02-27T21:21:31.915Z,100
2023-02-27T21:23:41.664Z,100
2023-02-27T21:25:49.668Z,100
2023-02-27T21:27:56.628Z,100
2023-02-27T21:30:04.545Z,100
2023-02-27T21:32:11.857Z,100
2023-02-27T21:34:22.323Z,100
2023-02-27T21:36:28.946Z,100
2023-02-27T21:38:36.332Z,100
2023-02-27T21:40:42.957Z,100
2023-02-27T21:42:48.615Z,100
2023-02-27T21:44:55.042Z,100
2023-02-27T21:47:01.291Z,100
2023-02-27T21:49:07.222Z,100
2023-02-27T21:51:12.625Z,100
2023-02-27T21:53:18.602Z,100
2023-02-27T21:55:24.272Z,100
2023-02-27T21:57:29.702Z,100
2023-02-27T21:59:34.912Z,100
2023-02-27T22:01:40.657Z,100
2023-02-27T22:03:45.901Z,100
2023-02-27T22:05:52.163Z,100
2023-02-27T22:07:57.749Z,100
2023-02-27T22:10:03.235Z,100
2023-02-27T22:12:08.636Z,100
2023-02-27T22:14:14.008Z,100
2023-02-27T22:16:20.130Z,100
2023-02-27T22:18:25.682Z,100
2023-02-27T22:20:31.571Z,100
2023-02-27T22:22:37.313Z,100
2023-02-27T22:24:42.849Z,100
2023-02-27T22:26:48.260Z,100
2023-02-27T22:28:53.740Z,100
2023-02-27T22:30:59.372Z,100
2023-02-27T22:33:04.825Z,100
2023-02-27T22:35:10.343Z,100
2023-02-27T22:37:15.960Z,100
2023-02-27T22:39:21.382Z,100
2023-02-27T22:41:27.871Z,100
2023-02-27T22:43:33.732Z,100
2023-02-27T22:45:39.240Z,100
2023-02-27T22:47:44.625Z,100
2023-02-27T22:49:49.854Z,100
2023-02-27T22:51:55.601Z,100
2023-02-27T22:54:01.178Z,100
2023-02-27T22:56:09.337Z,100
2023-02-27T22:58:15.282Z,100
2023-02-27T23:00:21.303Z,100
2023-02-27T23:02:26.681Z,100
2023-02-27T23:04:32.341Z,100
2023-02-27T23:06:37.848Z,100
2023-02-27T23:08:43.099Z,100
2023-02-27T23:10:48.351Z,100
2023-02-27T23:12:53.655Z,100
2023-02-27T23:14:59.050Z,100
2023-02-27T23:17:04.363Z,100
2023-02-27T23:19:09.633Z,100
2023-02-27T23:21:14.812Z,100
2023-02-27T23:23:20.147Z,100
2023-02-27T23:25:26.798Z,100
2023-02-27T23:27:32.292Z,100
2023-02-27T23:29:37.761Z,100
2023-02-27T23:31:43.392Z,100
2023-02-27T23:33:48.664Z,100
2023-02-27T23:35:54.394Z,100
2023-02-27T23:37:59.689Z,100
2023-02-27T23:40:05.132Z,100
2023-02-27T23:42:10.495Z,100
2023-02-27T23:44:16.409Z,100
2023-02-27T23:46:21.895Z,100
2023-02-27T23:48:27.273Z,100
2023-02-27T23:50:33.457Z,100
2023-02-27T23:52:39.063Z,100
2023-02-27T23:54:44.822Z,100
2023-02-27T23:56:50.079Z,100
2023-02-27T23:58:55.893Z,100
